< < Back
Terminal Aerodrome Forecast


Current Version              Previous Versions:   1  2  3  4  5  6  7  8  9  

Terminal Aerodrome Forecast

193
FTUS42 KJAX 241100
TAFJAX
TAF
KJAX 241123Z 2412/2512 00000KT 5SM BR SCT070
      TEMPO 2412/2413 2SM BR BKN004
     FM241300 12007KT P6SM SCT040
     FM241900 14010KT P6SM BKN050
     FM250200 19005KT P6SM SCT060=



Latest METAR

244
SAUS80 KWBC 250100 CCA
MTRJAX
METAR KJAX 250056Z 15011KT 10SM BKN060 BKN095 23/17 A2995 RMK AO2 SLP141
T02330172


USA.gov is the U.S. government's official web portal to all federal, state and local government web resources and services.